Time;durP1;ratioP1;P1;durP2;ratioP2;P2;SDS_P1;SDS_P2;PMS_P1;PMS_P2;Temp;Humidity;BMP_temperature;BMP_pressure;BME280_temperature;BME280_humidity;BME280_pressure;Samples;Min_cycle;Max_cycle;Signal;HPM_P1;HPM_P2
2021/08/15 00:01:14;;;;;;;1030.32;926.88;;;;;;;;;;5029061;28;20340;-75
2021/08/15 00:03:40;;;;;;;1031.50;927.53;;;;;;;;;;5025060;28;20033;-75
2021/08/15 00:06:06;;;;;;;1025.05;921.88;;;;;;;;;;5028924;28;20135;-75
2021/08/15 00:08:32;;;;;;;1030.50;926.92;;;;;;;;;;5027822;28;20037;-75
2021/08/15 00:10:58;;;;;;;1023.05;920.17;;;;;;;;;;5029353;28;20049;-75
2021/08/15 00:13:24;;;;;;;1029.10;926.13;;;;;;;;;;5028674;28;20598;-75
2021/08/15 00:15:50;;;;;;;1034.57;930.97;;;;;;;;;;5028725;28;20049;-75
2021/08/15 00:18:16;;;;;;;1024.60;921.75;;;;;;;;;;5023330;28;20045;-76
2021/08/15 00:20:42;;;;;;;1033.35;929.97;;;;;;;;;;5024349;28;20087;-76
2021/08/15 00:23:08;;;;;;;1030.90;927.20;;;;;;;;;;5025412;28;20111;-75
2021/08/15 00:25:34;;;;;;;1037.68;933.90;;;;;;;;;;5021319;28;20021;-75
2021/08/15 00:28:00;;;;;;;1035.55;932.28;;;;;;;;;;5021674;28;20052;-76
2021/08/15 00:30:26;;;;;;;1037.40;933.40;;;;;;;;;;5028319;28;20083;-76
2021/08/15 00:32:52;;;;;;;1023.15;920.30;;;;;;;;;;5028660;28;20041;-75
2021/08/15 00:35:18;;;;;;;1034.63;930.95;;;;;;;;;;5022753;28;20045;-77
2021/08/15 00:37:44;;;;;;;1031.50;928.53;;;;;;;;;;5025876;28;20666;-77
2021/08/15 00:40:11;;;;;;;1033.95;930.90;;;;;;;;;;5023146;28;20025;-75
2021/08/15 00:42:37;;;;;;;1025.57;922.58;;;;;;;;;;5040993;28;20116;-75
2021/08/15 00:45:03;;;;;;;1031.20;928.28;;;;;;;;;;5025829;28;20056;-75
2021/08/15 00:47:30;;;;;;;1024.80;922.00;;;;;;;;;;5026956;28;20057;-76
2021/08/15 00:49:56;;;;;;;1027.90;924.78;;;;;;;;;;5023408;28;20021;-75
2021/08/15 00:52:22;;;;;;;1039.43;935.63;;;;;;;;;;5024975;28;20059;-75
2021/08/15 00:54:48;;;;;;;1026.75;924.03;;;;;;;;;;5023492;28;20037;-74
2021/08/15 00:57:14;;;;;;;1031.40;928.17;;;;;;;;;;5024814;28;20052;-74
2021/08/15 00:59:41;;;;;;;1025.15;922.47;;;;;;;;;;5021817;28;20120;-76
2021/08/15 01:02:09;;;;;;;1022.92;920.05;;;;;;;;;;5020342;28;20029;-75
2021/08/15 01:04:40;;;;;;;1027.90;925.03;;;;;;;;;;5024702;28;20029;-75
2021/08/15 01:07:06;;;;;;;1017.63;915.47;;;;;;;;;;5027588;28;20829;-76
2021/08/15 01:09:32;;;;;;;1021.92;919.15;;;;;;;;;;5019955;28;20067;-76
2021/08/15 01:11:59;;;;;;;1036.40;933.03;;;;;;;;;;5023780;28;20382;-75
2021/08/15 01:14:26;;;;;;;1029.93;927.00;;;;;;;;;;5019041;28;20108;-74
2021/08/15 01:16:52;;;;;;;1023.85;921.03;;;;;;;;;;5026914;28;20402;-75
2021/08/15 01:19:18;;;;;;;1022.35;920.05;;;;;;;;;;5029031;28;20453;-75
2021/08/15 01:21:47;;;;;;;1022.78;920.58;;;;;;;;;;5027657;28;20042;-75
2021/08/15 01:24:16;;;;;;;1019.17;915.15;;;;;;;;;;5028817;28;20034;-75
2021/08/15 01:26:42;;;;;;;1024.70;922.33;;;;;;;;;;5026657;28;20435;-75
2021/08/15 01:29:08;;;;;;;1019.20;917.00;;;;;;;;;;5026301;28;20053;-75
2021/08/15 01:31:34;;;;;;;1019.42;917.25;;;;;;;;;;5026846;28;20558;-75
2021/08/15 01:34:00;;;;;;;1026.32;923.70;;;;;;;;;;5028917;28;20029;-76
2021/08/15 01:36:26;;;;;;;1024.20;922.13;;;;;;;;;;5025792;28;20029;-75
2021/08/15 01:38:52;;;;;;;1025.57;923.00;;;;;;;;;;5026484;28;20091;-74
2021/08/15 01:41:18;;;;;;;1034.40;931.17;;;;;;;;;;5027784;28;20167;-74
2021/08/15 01:43:52;;;;;;;1019.13;916.95;;;;;;;;;;5028074;28;20025;-75
2021/08/15 01:46:19;;;;;;;1023.42;921.00;;;;;;;;;;5026022;28;20095;-75
2021/08/15 01:48:45;;;;;;;1012.50;910.53;;;;;;;;;;5014278;28;20064;-74
2021/08/15 01:51:11;;;;;;;1013.17;911.38;;;;;;;;;;5026560;28;20040;-75
2021/08/15 01:53:37;;;;;;;1016.92;914.72;;;;;;;;;;5023016;28;20025;-75
2021/08/15 01:56:04;;;;;;;1023.80;921.20;;;;;;;;;;5025719;28;20037;-75
2021/08/15 01:58:29;;;;;;;1024.15;921.47;;;;;;;;;;5025766;28;20046;-75
2021/08/15 02:00:55;;;;;;;1024.97;921.90;;;;;;;;;;5023182;28;20480;-75
2021/08/15 02:03:21;;;;;;;1019.33;917.25;;;;;;;;;;5027620;28;20363;-74
2021/08/15 02:05:47;;;;;;;1023.38;921.38;;;;;;;;;;5027569;28;20033;-74
2021/08/15 02:08:13;;;;;;;1021.67;919.42;;;;;;;;;;5026314;28;20056;-75
2021/08/15 02:10:40;;;;;;;1024.00;921.78;;;;;;;;;;5025047;28;20083;-75
2021/08/15 02:13:07;;;;;;;1026.60;924.17;;;;;;;;;;5027494;28;20479;-75
2021/08/15 02:15:34;;;;;;;1026.40;923.92;;;;;;;;;;5026191;28;20051;-76
2021/08/15 02:18:01;;;;;;;1028.70;926.13;;;;;;;;;;5027396;28;20014;-75
2021/08/15 02:20:28;;;;;;;1020.70;918.83;;;;;;;;;;5020156;28;20021;-76
2021/08/15 02:22:54;;;;;;;1029.65;927.08;;;;;;;;;;5028149;28;20739;-75
2021/08/15 02:25:20;;;;;;;1024.97;922.88;;;;;;;;;;5022563;28;20029;-76
2021/08/15 02:27:47;;;;;;;1023.92;921.70;;;;;;;;;;5027653;28;20038;-76
2021/08/15 02:30:14;;;;;;;1025.50;922.92;;;;;;;;;;5026712;28;20767;-75
2021/08/15 02:32:41;;;;;;;1031.30;916.97;;;;;;;;;;5022413;28;20072;-74
2021/08/15 02:35:08;;;;;;;1498.72;605.63;;;;;;;;;;5024741;28;20440;-75
2021/08/15 02:37:34;;;;;;;1018.72;916.33;;;;;;;;;;5025726;28;20026;-75
2021/08/15 02:40:01;;;;;;;1031.85;928.72;;;;;;;;;;5026128;28;20021;-75
2021/08/15 02:42:28;;;;;;;1024.22;921.60;;;;;;;;;;5025188;28;20022;-74
2021/08/15 02:44:53;;;;;;;1022.55;920.33;;;;;;;;;;5026930;28;20109;-75
2021/08/15 02:47:19;;;;;;;1019.45;917.38;;;;;;;;;;5025940;28;20125;-74
2021/08/15 02:49:45;;;;;;;1021.38;919.13;;;;;;;;;;5029778;28;20029;-74
2021/08/15 02:52:11;;;;;;;1026.30;923.80;;;;;;;;;;5030162;28;20032;-74
2021/08/15 02:54:37;;;;;;;1029.15;926.30;;;;;;;;;;5030342;28;20499;-74
2021/08/15 02:57:03;;;;;;;1013.42;912.33;;;;;;;;;;5029545;28;20428;-76
2021/08/15 02:59:29;;;;;;;1022.78;920.53;;;;;;;;;;5026250;28;20037;-74
2021/08/15 03:01:56;;;;;;;1009.78;908.90;;;;;;;;;;5023843;28;20091;-74
2021/08/15 03:04:22;;;;;;;1018.03;916.28;;;;;;;;;;5021705;28;20017;-76
2021/08/15 03:06:48;;;;;;;1020.63;918.97;;;;;;;;;;5028106;28;20096;-75
2021/08/15 03:09:13;;;;;;;1021.03;918.78;;;;;;;;;;5023865;28;20649;-74
2021/08/15 03:11:39;;;;;;;1024.72;922.45;;;;;;;;;;5027514;28;20666;-76
2021/08/15 03:14:05;;;;;;;1022.55;920.28;;;;;;;;;;5030688;28;20100;-75
2021/08/15 03:16:31;;;;;;;1022.95;920.75;;;;;;;;;;5029034;28;20112;-75
2021/08/15 03:18:57;;;;;;;1020.08;917.90;;;;;;;;;;5031738;28;20096;-75
2021/08/15 03:21:29;;;;;;;1009.95;908.47;;;;;;;;;;5021188;28;20026;-74
2021/08/15 03:23:55;;;;;;;1013.25;911.42;;;;;;;;;;5025029;28;20083;-75
2021/08/15 03:26:21;;;;;;;1018.53;915.42;;;;;;;;;;5030576;28;20034;-76
2021/08/15 03:28:47;;;;;;;1003.72;902.60;;;;;;;;;;5029856;28;20025;-74
2021/08/15 03:31:13;;;;;;;1012.90;910.40;;;;;;;;;;5023122;28;20037;-74
2021/08/15 03:33:39;;;;;;;1015.63;913.63;;;;;;;;;;5029136;28;20021;-74
2021/08/15 03:36:06;;;;;;;1028.13;925.30;;;;;;;;;;5029804;28;20037;-75
2021/08/15 03:38:32;;;;;;;1020.88;918.67;;;;;;;;;;5021976;28;20022;-75
2021/08/15 03:40:58;;;;;;;1027.78;924.80;;;;;;;;;;5020334;28;20371;-75
2021/08/15 03:43:24;;;;;;;1014.63;912.60;;;;;;;;;;5029343;28;20347;-75
2021/08/15 03:45:50;;;;;;;1014.78;912.42;;;;;;;;;;5030513;28;20550;-74
2021/08/15 03:48:16;;;;;;;1016.88;914.50;;;;;;;;;;5028975;28;20141;-75
2021/08/15 03:50:42;;;;;;;1013.97;912.17;;;;;;;;;;5029478;28;20116;-76
2021/08/15 03:53:08;;;;;;;1016.28;914.10;;;;;;;;;;5029382;28;20116;-75
2021/08/15 03:55:34;;;;;;;997.53;896.83;;;;;;;;;;5028374;28;20097;-74
2021/08/15 03:58:00;;;;;;;1013.85;912.13;;;;;;;;;;5029348;28;20108;-75
2021/08/15 04:00:26;;;;;;;1026.55;923.65;;;;;;;;;;5028367;28;20431;-75
2021/08/15 04:02:52;;;;;;;1024.55;922.00;;;;;;;;;;5028258;28;20025;-74
2021/08/15 04:05:18;;;;;;;1004.60;903.40;;;;;;;;;;5028827;28;20113;-74
2021/08/15 04:07:44;;;;;;;1027.55;924.67;;;;;;;;;;5028280;28;20107;-74
2021/08/15 04:10:10;;;;;;;997.55;896.47;;;;;;;;;;5029468;28;20025;-77
2021/08/15 04:12:36;;;;;;;999.72;898.45;;;;;;;;;;5025439;28;20053;-75
2021/08/15 04:15:03;;;;;;;1021.10;918.53;;;;;;;;;;5028720;28;20032;-76
2021/08/15 04:17:29;;;;;;;1017.58;915.30;;;;;;;;;;5028522;28;20056;-74
2021/08/15 04:19:55;;;;;;;1010.97;909.30;;;;;;;;;;5030069;28;20053;-75
2021/08/15 04:22:21;;;;;;;1021.03;918.72;;;;;;;;;;5027847;28;20043;-74
2021/08/15 04:24:47;;;;;;;997.05;896.53;;;;;;;;;;5025730;28;20067;-75
2021/08/15 04:27:13;;;;;;;994.05;893.88;;;;;;;;;;5020735;28;20091;-75
2021/08/15 04:29:39;;;;;;;1016.13;914.45;;;;;;;;;;5025665;28;20705;-74
2021/08/15 04:32:07;;;;;;;1031.22;928.17;;;;;;;;;;5028851;28;20037;-75
2021/08/15 04:34:34;;;;;;;1026.40;923.58;;;;;;;;;;5026892;28;20220;-75
2021/08/15 04:37:00;;;;;;;1046.93;942.42;;;;;;;;;;5027111;28;20436;-75
2021/08/15 04:39:26;;;;;;;1037.93;933.70;;;;;;;;;;5028021;28;20091;-75
2021/08/15 04:41:52;;;;;;;1024.43;921.05;;;;;;;;;;5021426;28;20026;-76
2021/08/15 04:44:18;;;;;;;1024.15;920.55;;;;;;;;;;5027499;28;20065;-75
2021/08/15 04:46:44;;;;;;;1022.88;919.50;;;;;;;;;;5020468;28;20498;-75
2021/08/15 04:49:10;;;;;;;1017.17;914.45;;;;;;;;;;5011097;28;20088;-75
2021/08/15 04:51:35;;;;;;;1016.63;914.13;;;;;;;;;;5022278;28;20037;-76
2021/08/15 04:54:01;;;;;;;1027.75;924.42;;;;;;;;;;5028483;28;20040;-74
2021/08/15 04:56:27;;;;;;;1021.03;918.10;;;;;;;;;;5029600;28;20112;-75
2021/08/15 04:58:53;;;;;;;1009.97;907.83;;;;;;;;;;5028113;28;20022;-75
2021/08/15 05:01:19;;;;;;;1009.63;907.60;;;;;;;;;;5026101;28;20037;-76
2021/08/15 05:03:45;;;;;;;1012.95;910.92;;;;;;;;;;5024726;28;20010;-75
2021/08/15 05:06:11;;;;;;;1014.20;912.00;;;;;;;;;;5028593;28;20041;-77
2021/08/15 05:08:37;;;;;;;1011.10;908.72;;;;;;;;;;5027758;28;20100;-76
2021/08/15 05:11:03;;;;;;;1008.40;906.38;;;;;;;;;;5026805;28;20038;-75
2021/08/15 05:13:29;;;;;;;1014.55;911.90;;;;;;;;;;5026377;28;20029;-75
2021/08/15 05:15:56;;;;;;;1018.50;915.95;;;;;;;;;;5029209;28;20026;-76
2021/08/15 05:18:21;;;;;;;1030.90;927.38;;;;;;;;;;5028752;28;20026;-75
2021/08/15 05:20:47;;;;;;;1026.07;922.78;;;;;;;;;;5027568;28;20087;-75
2021/08/15 05:23:13;;;;;;;1029.95;926.88;;;;;;;;;;5029187;28;20093;-74
2021/08/15 05:25:39;;;;;;;1031.75;928.58;;;;;;;;;;5028508;28;20029;-75
2021/08/15 05:28:05;;;;;;;1037.60;934.10;;;;;;;;;;5022964;28;20041;-76
2021/08/15 05:30:32;;;;;;;1044.28;940.22;;;;;;;;;;5027537;28;20108;-74
2021/08/15 05:32:58;;;;;;;1045.07;941.28;;;;;;;;;;5027286;28;20183;-75
2021/08/15 05:35:24;;;;;;;1046.80;942.95;;;;;;;;;;5026966;28;20140;-74
2021/08/15 05:37:50;;;;;;;1048.63;944.45;;;;;;;;;;5025007;28;20516;-75
2021/08/15 05:40:16;;;;;;;1049.63;945.70;;;;;;;;;;5022132;28;20160;-74
2021/08/15 05:42:42;;;;;;;1047.10;943.05;;;;;;;;;;5025130;28;20410;-75
2021/08/15 05:45:08;;;;;;;1049.50;945.15;;;;;;;;;;5026282;28;20504;-75
2021/08/15 05:47:34;;;;;;;1049.28;945.17;;;;;;;;;;5029185;28;20087;-74
2021/08/15 05:50:00;;;;;;;1053.82;949.45;;;;;;;;;;5027171;28;20033;-75
2021/08/15 05:52:27;;;;;;;1048.50;944.45;;;;;;;;;;5021403;28;20030;-75
2021/08/15 05:54:53;;;;;;;1044.13;940.45;;;;;;;;;;5027244;28;20026;-74
2021/08/15 05:57:19;;;;;;;1043.35;939.58;;;;;;;;;;5026740;28;20028;-74
2021/08/15 05:59:45;;;;;;;1045.43;941.50;;;;;;;;;;5026983;28;20041;-76
2021/08/15 06:02:11;;;;;;;1045.82;941.83;;;;;;;;;;5024639;28;20052;-75
2021/08/15 06:04:37;;;;;;;1050.05;945.90;;;;;;;;;;5024959;28;20056;-74
2021/08/15 06:07:03;;;;;;;1054.20;949.67;;;;;;;;;;5026793;28;20095;-75
2021/08/15 06:09:29;;;;;;;1048.03;944.10;;;;;;;;;;5027132;28;20093;-75
2021/08/15 06:11:55;;;;;;;1045.95;941.80;;;;;;;;;;5026683;28;20112;-75
2021/08/15 06:14:21;;;;;;;1052.07;946.55;;;;;;;;;;5026836;28;20040;-74
2021/08/15 06:16:47;;;;;;;1049.97;946.08;;;;;;;;;;5013482;28;20025;-74
2021/08/15 06:19:13;;;;;;;1049.65;945.60;;;;;;;;;;5023722;28;20028;-74
2021/08/15 06:21:40;;;;;;;1059.25;954.47;;;;;;;;;;5026908;28;20463;-74
2021/08/15 06:24:06;;;;;;;1058.53;954.08;;;;;;;;;;5028259;28;20060;-74
2021/08/15 06:26:32;;;;;;;1061.07;955.97;;;;;;;;;;5029688;28;20439;-74
2021/08/15 06:28:58;;;;;;;1058.30;953.72;;;;;;;;;;5032222;28;20033;-74
2021/08/15 06:31:24;;;;;;;1056.75;952.90;;;;;;;;;;5022710;28;20079;-75
2021/08/15 06:33:50;;;;;;;1054.07;950.05;;;;;;;;;;5030693;28;20021;-75
2021/08/15 06:36:16;;;;;;;1060.05;955.42;;;;;;;;;;5030333;28;20026;-75
2021/08/15 06:38:43;;;;;;;1055.88;951.67;;;;;;;;;;5028727;28;20018;-75
2021/08/15 06:41:09;;;;;;;1059.70;955.42;;;;;;;;;;5027339;28;20432;-74
2021/08/15 06:43:35;;;;;;;1059.47;954.63;;;;;;;;;;5031462;28;20033;-75
2021/08/15 06:46:01;;;;;;;1051.18;947.08;;;;;;;;;;5030785;28;20033;-74
2021/08/15 06:48:27;;;;;;;1055.35;951.45;;;;;;;;;;5032290;28;20039;-74
2021/08/15 06:50:57;;;;;;;1060.90;956.38;;;;;;;;;;5029016;28;20029;-74
2021/08/15 06:53:23;;;;;;;1062.40;957.80;;;;;;;;;;5024380;28;20405;-75
2021/08/15 06:55:49;;;;;;;1059.10;954.83;;;;;;;;;;5029734;28;20029;-74
2021/08/15 06:58:16;;;;;;;1053.90;950.13;;;;;;;;;;5030504;28;20399;-74
2021/08/15 07:00:42;;;;;;;1057.63;953.72;;;;;;;;;;5030028;28;20036;-75
2021/08/15 07:03:08;;;;;;;1065.68;961.53;;;;;;;;;;5029172;28;20030;-76
2021/08/15 07:05:34;;;;;;;1068.40;964.03;;;;;;;;;;5029838;28;20029;-75
2021/08/15 07:08:00;;;;;;;1074.45;970.08;;;;;;;;;;5028055;28;20037;-75
2021/08/15 07:10:27;;;;;;;1076.38;971.38;;;;;;;;;;5029423;28;20040;-75
2021/08/15 07:12:55;;;;;;;1074.18;969.42;;;;;;;;;;5029884;28;20029;-76
2021/08/15 07:15:21;;;;;;;1075.30;970.88;;;;;;;;;;5030356;28;20034;-76
2021/08/15 07:17:47;;;;;;;1076.63;972.38;;;;;;;;;;5030895;28;20031;-76
2021/08/15 07:20:13;;;;;;;1081.88;977.10;;;;;;;;;;5027092;28;20120;-77
2021/08/15 07:22:39;;;;;;;986.30;890.67;;;;;;;;;;5023899;28;20029;-77
2021/08/15 07:25:06;;;;;;;563.47;394.85;;;;;;;;;;5023717;28;20040;-76
2021/08/15 07:27:33;;;;;;;373.17;324.38;;;;;;;;;;5025839;28;20059;-78
2021/08/15 07:29:59;;;;;;;478.30;244.10;;;;;;;;;;5021022;28;20033;-76
2021/08/15 07:32:25;;;;;;;993.22;897.83;;;;;;;;;;5021546;28;20044;-76
2021/08/15 07:34:51;;;;;;;685.40;603.05;;;;;;;;;;5024914;28;20029;-76
2021/08/15 07:37:17;;;;;;;989.88;894.38;;;;;;;;;;5009301;28;20034;-78
2021/08/15 07:39:43;;;;;;;976.97;883.28;;;;;;;;;;5025262;28;20511;-76
2021/08/15 07:42:09;;;;;;;834.28;748.75;;;;;;;;;;5010528;28;20036;-75
2021/08/15 07:44:35;;;;;;;936.28;845.50;;;;;;;;;;5017043;28;20466;-76
2021/08/15 07:47:01;;;;;;;581.58;417.70;;;;;;;;;;5028494;28;20041;-78
2021/08/15 07:49:33;;;;;;;731.00;653.55;;;;;;;;;;5019040;28;20032;-77
2021/08/15 07:51:59;;;;;;;879.78;792.97;;;;;;;;;;5014233;28;20061;-82
2021/08/15 07:54:25;;;;;;;967.42;874.08;;;;;;;;;;5014514;28;20526;-76
2021/08/15 07:56:51;;;;;;;971.35;877.38;;;;;;;;;;5011082;28;20029;-77
2021/08/15 07:59:17;;;;;;;958.00;865.35;;;;;;;;;;5024119;28;20025;-75
2021/08/15 08:01:43;;;;;;;635.20;540.22;;;;;;;;;;5016237;28;20035;-76
2021/08/15 08:04:09;;;;;;;721.00;643.70;;;;;;;;;;5012348;28;20022;-75
2021/08/15 08:06:35;;;;;;;657.53;582.42;;;;;;;;;;5012846;28;20103;-77
2021/08/15 08:09:01;;;;;;;651.05;573.67;;;;;;;;;;5013252;28;20034;-76
2021/08/15 08:11:28;;;;;;;792.92;711.97;;;;;;;;;;5028129;28;20669;-76
2021/08/15 08:13:54;;;;;;;1206.03;924.30;;;;;;;;;;5016218;28;20033;-79
2021/08/15 08:16:20;;;;;;;998.78;903.53;;;;;;;;;;5018540;28;20017;-77
2021/08/15 08:18:49;;;;;;;640.45;551.58;;;;;;;;;;5025291;28;20033;-77
2021/08/15 08:21:15;;;;;;;459.92;236.93;;;;;;;;;;5026602;28;20033;-77
2021/08/15 08:23:42;;;;;;;971.25;878.47;;;;;;;;;;5026844;28;20179;-76
2021/08/15 08:26:07;;;;;;;488.65;286.20;;;;;;;;;;5018758;28;20042;-76
2021/08/15 08:28:33;;;;;;;443.00;223.93;;;;;;;;;;5019097;28;20042;-76
2021/08/15 08:30:59;;;;;;;823.30;677.03;;;;;;;;;;5011178;28;20026;-76
2021/08/15 08:33:27;;;;;;;1006.63;912.20;;;;;;;;;;5019797;28;20048;-77
2021/08/15 08:35:53;;;;;;;772.80;693.97;;;;;;;;;;5028281;28;20628;-75
2021/08/15 08:38:19;;;;;;;1080.80;979.42;;;;;;;;;;5023737;28;20029;-72
2021/08/15 08:40:47;;;;;;;893.65;807.88;;;;;;;;;;5028583;28;20017;-76
2021/08/15 08:43:14;;;;;;;1297.82;927.45;;;;;;;;;;5028917;28;20075;-74
2021/08/15 08:45:41;;;;;;;926.78;742.92;;;;;;;;;;5024371;28;20045;-75
2021/08/15 08:48:08;;;;;;;789.17;711.25;;;;;;;;;;5022507;28;20040;-77
2021/08/15 08:50:34;;;;;;;1999.90;999.90;;;;;;;;;;5026752;28;20021;-76
2021/08/15 08:53:01;;;;;;;528.67;392.65;;;;;;;;;;5016509;28;20052;-75
2021/08/15 08:55:28;;;;;;;1093.95;995.22;;;;;;;;;;5028658;28;20029;-72
2021/08/15 08:57:54;;;;;;;593.70;523.13;;;;;;;;;;5026786;28;20611;-72
2021/08/15 09:00:20;;;;;;;852.53;772.08;;;;;;;;;;5029750;28;20021;-71
2021/08/15 09:02:47;;;;;;;823.30;737.60;;;;;;;;;;5027815;28;20026;-71
2021/08/15 09:05:14;;;;;;;751.05;677.47;;;;;;;;;;5028699;28;20028;-76
2021/08/15 09:07:42;;;;;;;354.85;283.20;;;;;;;;;;5026813;28;20618;-71
2021/08/15 09:10:10;;;;;;;706.55;634.92;;;;;;;;;;5028678;28;20022;-73
2021/08/15 09:12:43;;;;;;;1700.22;985.58;;;;;;;;;;5027929;28;20021;-79
2021/08/15 09:15:18;;;;;;;1834.43;999.90;;;;;;;;;;5030092;28;20021;-76
2021/08/15 09:17:45;;;;;;;1999.90;999.90;;;;;;;;;;5029581;28;20470;-74
2021/08/15 09:20:15;;;;;;;615.20;512.33;;;;;;;;;;5030470;28;20418;-75
2021/08/15 09:22:41;;;;;;;;;;;;;;;;;;5029200;28;20166;-76
2021/08/15 09:25:09;;;;;;;1120.65;999.90;;;;;;;;;;5029210;28;19995;-77
2021/08/15 09:27:43;;;;;;;1137.43;999.90;;;;;;;;;;5019427;28;20444;-77
2021/08/15 09:30:18;;;;;;;1162.53;999.90;;;;;;;;;;5013377;28;20064;-76
2021/08/15 09:32:57;;;;;;;1999.90;999.90;;;;;;;;;;5027321;28;20014;-76
2021/08/15 09:35:26;;;;;;;896.72;780.90;;;;;;;;;;5028648;28;20022;-76
2021/08/15 09:37:58;;;;;;;548.85;466.23;;;;;;;;;;5026618;28;20041;-75
2021/08/15 09:40:25;;;;;;;602.55;540.78;;;;;;;;;;5010195;28;20101;-76
2021/08/15 09:42:52;;;;;;;710.22;636.13;;;;;;;;;;5023682;28;20025;-73
2021/08/15 09:45:31;;;;;;;813.30;718.85;;;;;;;;;;5024257;28;20317;-73
2021/08/15 09:48:15;;;;;;;1066.73;977.77;;;;;;;;;;5024409;28;20068;-72
2021/08/15 09:50:41;;;;;;;844.17;770.20;;;;;;;;;;5024498;28;20793;-72
2021/08/15 09:53:07;;;;;;;591.72;534.13;;;;;;;;;;5025742;28;20141;-73
2021/08/15 09:55:46;;;;;;;719.38;653.22;;;;;;;;;;5023748;28;20099;-72
2021/08/15 09:58:16;;;;;;;1049.10;762.08;;;;;;;;;;5026345;28;20503;-72
2021/08/15 10:00:42;;;;;;;1213.32;732.60;;;;;;;;;;5027627;28;20102;-72
2021/08/15 10:03:08;;;;;;;1041.20;955.03;;;;;;;;;;5027129;28;20491;-72
2021/08/15 10:05:35;;;;;;;1018.22;934.17;;;;;;;;;;5027504;28;20044;-72
2021/08/15 10:08:03;;;;;;;1206.55;999.90;;;;;;;;;;5026636;28;20583;-71
2021/08/15 10:10:29;;;;;;;1197.30;999.90;;;;;;;;;;5028477;28;20418;-72
2021/08/15 10:12:55;;;;;;;1201.53;999.90;;;;;;;;;;5027055;28;20025;-71
2021/08/15 10:15:21;;;;;;;1223.07;999.90;;;;;;;;;;5026990;28;20038;-71
2021/08/15 10:17:50;;;;;;;1224.03;999.90;;;;;;;;;;5026686;28;20030;-73
2021/08/15 10:20:22;;;;;;;1897.77;999.90;;;;;;;;;;5027914;28;20060;-72
2021/08/15 10:22:50;;;;;;;1340.10;999.90;;;;;;;;;;5025916;28;20524;-74
2021/08/15 10:25:32;;;;;;;1343.45;999.90;;;;;;;;;;5028691;28;20036;-72
2021/08/15 10:28:00;;;;;;;1350.72;999.90;;;;;;;;;;5027925;28;20033;-72
2021/08/15 10:30:47;;;;;;;1356.60;999.90;;;;;;;;;;5027277;28;20026;-72
2021/08/15 10:33:13;;;;;;;1356.78;999.90;;;;;;;;;;5028193;28;20617;-72
2021/08/15 10:35:39;;;;;;;1358.10;999.90;;;;;;;;;;5024422;28;20320;-74
2021/08/15 10:38:27;;;;;;;1355.38;999.90;;;;;;;;;;5027507;28;20026;-72
2021/08/15 10:40:53;;;;;;;1362.75;999.90;;;;;;;;;;5028269;28;20038;-74
2021/08/15 10:43:22;;;;;;;1358.22;999.90;;;;;;;;;;5028949;28;20023;-72
2021/08/15 10:46:07;;;;;;;1351.45;999.90;;;;;;;;;;5027912;28;20344;-73
2021/08/15 10:48:50;;;;;;;1344.82;999.90;;;;;;;;;;5026067;28;20164;-73
2021/08/15 10:51:34;;;;;;;1348.60;999.90;;;;;;;;;;5025890;28;20034;-74
2021/08/15 10:54:00;;;;;;;1336.95;999.90;;;;;;;;;;5026168;28;20033;-72
2021/08/15 10:56:46;;;;;;;1341.45;999.90;;;;;;;;;;5026814;28;20033;-77
2021/08/15 10:59:32;;;;;;;1335.60;999.90;;;;;;;;;;5026118;28;20021;-73
2021/08/15 11:02:14;;;;;;;1299.90;999.90;;;;;;;;;;5026791;28;20055;-77
2021/08/15 11:04:41;;;;;;;1285.88;999.90;;;;;;;;;;5026163;28;20040;-77
2021/08/15 11:07:07;;;;;;;1300.53;999.90;;;;;;;;;;5025892;28;20053;-78
2021/08/15 11:09:52;;;;;;;1999.90;999.90;;;;;;;;;;5042433;28;20021;-78
2021/08/15 11:12:20;;;;;;;1283.13;999.90;;;;;;;;;;5027302;28;20064;-76
2021/08/15 11:14:54;;;;;;;1289.63;999.90;;;;;;;;;;5043985;28;20028;-76
2021/08/15 11:17:20;;;;;;;1294.97;999.90;;;;;;;;;;5030875;28;20038;-76
2021/08/15 11:19:47;;;;;;;1286.93;999.90;;;;;;;;;;5030073;28;20036;-77
2021/08/15 11:22:26;;;;;;;1297.32;999.90;;;;;;;;;;5026774;28;20121;-78
2021/08/15 11:24:52;;;;;;;1278.78;999.90;;;;;;;;;;5020319;28;20022;-77
2021/08/15 11:27:19;;;;;;;1280.43;999.90;;;;;;;;;;5027199;28;20479;-77
2021/08/15 11:29:46;;;;;;;1281.95;999.90;;;;;;;;;;5023526;28;20040;-78
2021/08/15 11:32:21;;;;;;;1088.72;998.25;;;;;;;;;;5030965;28;20666;-80
2021/08/15 11:35:00;;;;;;;1039.13;956.95;;;;;;;;;;5030595;28;20030;-78
2021/08/15 11:37:27;;;;;;;980.42;901.80;;;;;;;;;;5031098;28;20030;-79
2021/08/15 11:39:54;;;;;;;1010.42;929.20;;;;;;;;;;5031126;28;20026;-78
2021/08/15 11:42:22;;;;;;;1059.30;961.92;;;;;;;;;;5030909;28;20352;-78
2021/08/15 11:44:58;;;;;;;1080.45;993.63;;;;;;;;;;5030720;28;20022;-80
2021/08/15 11:47:32;;;;;;;1048.55;962.03;;;;;;;;;;5030426;28;20095;-79
2021/08/15 11:50:00;;;;;;;1060.47;975.05;;;;;;;;;;5030997;28;20025;-78
2021/08/15 11:52:36;;;;;;;1142.07;999.90;;;;;;;;;;5030248;28;20138;-78
2021/08/15 11:55:03;;;;;;;1140.35;999.90;;;;;;;;;;5012643;28;20028;-79
2021/08/15 11:57:43;;;;;;;1999.90;999.90;;;;;;;;;;5015102;28;20033;-78
2021/08/15 12:00:09;;;;;;;1087.93;997.42;;;;;;;;;;5022917;28;20032;-79
2021/08/15 12:02:38;;;;;;;1086.35;996.95;;;;;;;;;;5029893;28;20024;-79
2021/08/15 12:05:04;;;;;;;1076.95;990.05;;;;;;;;;;5028040;28;20020;-79
2021/08/15 12:07:30;;;;;;;1019.75;938.08;;;;;;;;;;5029242;28;20056;-78
2021/08/15 12:10:16;;;;;;;1084.32;996.55;;;;;;;;;;5027843;28;20527;-82
2021/08/15 12:12:43;;;;;;;1172.65;999.90;;;;;;;;;;5017100;28;20379;-82
2021/08/15 12:15:10;;;;;;;1205.65;999.90;;;;;;;;;;5025229;28;20024;-80
2021/08/15 12:17:49;;;;;;;1194.93;999.90;;;;;;;;;;5028153;28;20026;-76
2021/08/15 12:20:21;;;;;;;1181.38;999.90;;;;;;;;;;5028879;28;20048;-76
2021/08/15 12:22:47;;;;;;;1170.50;999.90;;;;;;;;;;5027964;28;20025;-76
2021/08/15 12:25:19;;;;;;;1999.90;999.90;;;;;;;;;;5029528;28;20036;-77
2021/08/15 12:27:45;;;;;;;1999.90;999.90;;;;;;;;;;5030569;28;20033;-77
2021/08/15 12:30:11;;;;;;;1017.60;937.65;;;;;;;;;;5029713;28;20039;-76
2021/08/15 12:32:37;;;;;;;1091.13;999.90;;;;;;;;;;5023321;28;20095;-77
2021/08/15 12:35:03;;;;;;;1999.90;999.90;;;;;;;;;;5029293;28;20033;-77
2021/08/15 12:37:38;;;;;;;1051.35;963.45;;;;;;;;;;5029471;28;20022;-78
2021/08/15 12:40:04;;;;;;;1152.18;999.90;;;;;;;;;;5031161;28;20025;-75
2021/08/15 12:42:32;;;;;;;1161.13;999.90;;;;;;;;;;5030983;28;20060;-73
2021/08/15 12:45:00;;;;;;;1145.75;999.90;;;;;;;;;;5030132;28;20024;-74
2021/08/15 12:47:28;;;;;;;1953.07;999.90;;;;;;;;;;5029675;28;20088;-75
2021/08/15 12:50:14;;;;;;;1191.47;999.90;;;;;;;;;;5029763;28;20028;-75
2021/08/15 12:52:41;;;;;;;1226.70;999.90;;;;;;;;;;5029668;28;20068;-75
2021/08/15 12:55:10;;;;;;;1258.45;999.90;;;;;;;;;;5029079;28;20021;-74
2021/08/15 12:57:36;;;;;;;1255.10;999.90;;;;;;;;;;5028619;28;20068;-77
2021/08/15 13:00:03;;;;;;;1964.88;999.90;;;;;;;;;;5026063;28;20754;-75
2021/08/15 13:02:29;;;;;;;1742.28;999.90;;;;;;;;;;5030236;28;20071;-75
2021/08/15 13:04:56;;;;;;;1250.55;999.90;;;;;;;;;;5028937;28;20511;-74
2021/08/15 13:07:22;;;;;;;1999.90;999.90;;;;;;;;;;5029426;28;20088;-77
2021/08/15 13:09:51;;;;;;;1999.90;999.90;;;;;;;;;;5029402;28;20069;-77
2021/08/15 13:12:17;;;;;;;1999.90;999.90;;;;;;;;;;5028677;28;20033;-78
2021/08/15 13:14:43;;;;;;;1114.57;999.90;;;;;;;;;;5028919;28;20609;-77
2021/08/15 13:17:10;;;;;;;1122.60;999.90;;;;;;;;;;5029197;28;20044;-77
2021/08/15 13:19:36;;;;;;;1156.70;999.90;;;;;;;;;;5029008;28;20017;-77
2021/08/15 13:22:02;;;;;;;1192.22;999.90;;;;;;;;;;5028270;28;20040;-77
2021/08/15 13:24:28;;;;;;;935.13;855.22;;;;;;;;;;5028968;28;20018;-77
2021/08/15 13:26:54;;;;;;;1195.32;999.90;;;;;;;;;;5026264;28;20041;-78
2021/08/15 13:29:20;;;;;;;1254.75;999.90;;;;;;;;;;5024366;28;20486;-73
2021/08/15 13:31:46;;;;;;;1243.82;999.90;;;;;;;;;;5028159;28;20048;-72
2021/08/15 13:34:12;;;;;;;1241.80;999.90;;;;;;;;;;5030385;28;20035;-76
2021/08/15 13:36:39;;;;;;;1239.97;999.90;;;;;;;;;;5027008;28;20108;-72
2021/08/15 13:39:05;;;;;;;1226.07;999.90;;;;;;;;;;5026348;28;20446;-73
2021/08/15 13:41:30;;;;;;;1341.82;999.90;;;;;;;;;;5028968;28;20099;-74
2021/08/15 13:43:59;;;;;;;1999.90;999.90;;;;;;;;;;5028715;28;20325;-74
2021/08/15 13:46:25;;;;;;;886.75;778.83;;;;;;;;;;5026798;28;20028;-78